Terminal Aerodrome Forecast
Issued by NWS

Home | Current Version | Previous Version | Text Only | Print | Product List | Glossary On
Versions: 1 2 3 4 5 6 7 8 9 10 11 12 13 14 15 16 17 18 19
000
FTUS43 KDLH 232343
TAFHIB
TAF
KHIB 232343Z 2400/2424 08008KT P6SM SCT017 OVC045
      TEMPO 2400/2404 BKN015 OVC035
     FM240400 10011KT P6SM BKN025 OVC050
     FM240700 10012KT P6SM BKN012
     FM241000 09012KT P6SM BKN012
     FM241600 12012G20KT P6SM SCT015 BKN035=

USA.gov is the U.S. government's official web portal to all federal, state and local government web resources and services.